Frost Museum of Science FL US WEATHERSTEM current weather conditions

sailwx.info

Wind from 144 at 5 knots gusting 9

Air temperature 23.2° C
Dewpoint 18.5° C

Last reported at 2020-Jan-24 21:50 UTC.
Time now 2020-Jan-24 22:24 UTC

Location: N 25°47' W 080°11'.
View on Google Maps.

See reports from other nearby stations

  
Tides and Currents Weather Stations Pressure Air Temp Water Temp Dewpoint Dewpoint Depression Visibility Wind Speed Wind Dir Waves Ship Positions
date/time (UTC)wind fromknots sea level pressurealtimeterstation pressurevisibilityair tempwater tempwave heightnotes
2020-Jan-24 22:00 146 0 gusting 9 23.0
2020-Jan-24 21:50 144 5 gusting 9 23.2
2020-Jan-24 21:40 144 6 gusting 7 23.2
2020-Jan-24 21:30 144 3 gusting 8 23.1
2020-Jan-24 21:20 145 7 gusting 9 23.2
2020-Jan-24 21:00 130 10 gusting 10 23.2
2020-Jan-24 20:50 134 4 gusting 11 23.2
2020-Jan-24 20:40 123 6 gusting 10 23.4
2020-Jan-24 20:30 148 4 gusting 9 23.4
2020-Jan-24 20:20 140 6 gusting 13 23.5
2020-Jan-24 20:10 144 3 gusting 10 23.5
2020-Jan-24 20:00 132 2 gusting 10 23.9
2020-Jan-24 19:50 124 6 gusting 11 24.0
2020-Jan-24 19:40 149 4 gusting 11 23.9
2020-Jan-24 19:30 134 8 gusting 13 24.0
2020-Jan-24 19:20 139 4 gusting 11 23.8
2020-Jan-24 19:10 145 6 gusting 10 23.9
2020-Jan-24 19:00 142 7 gusting 10 24.0
2020-Jan-24 18:50 137 4 gusting 10 24.1
2020-Jan-24 18:40 142 3 gusting 10 23.8
2020-Jan-24 18:30 135 3 gusting 10 24.0
2020-Jan-24 18:20 138 2 gusting 7 24.4
2020-Jan-24 18:10 137 1 gusting 7 23.7
2020-Jan-24 18:00 136 2 gusting 12 23.4
2020-Jan-24 17:50 146 9 gusting 12 23.5
2020-Jan-24 17:40 131 7 gusting 7 23.8
2020-Jan-24 17:30 131 3 gusting 9 23.7
2020-Jan-24 17:20 122 4 gusting 9 23.9
2020-Jan-24 17:10 125 4 gusting 8 23.5
2020-Jan-24 17:00 146 5 gusting 10 23.6
2020-Jan-24 16:50 146 4 gusting 11 23.6
2020-Jan-24 16:40 140 6 gusting 9 23.9
2020-Jan-24 16:30 146 5 gusting 9 23.8
2020-Jan-24 16:20 142 1 gusting 9 23.6
2020-Jan-24 16:10 140 6 gusting 11 23.6
2020-Jan-24 16:00 131 6 gusting 10 23.8
2020-Jan-24 15:50 143 7 gusting 12 23.9
2020-Jan-24 15:40 134 6 gusting 11 23.8
2020-Jan-24 15:30 146 5 gusting 12 23.8
2020-Jan-24 15:10 146 4 gusting 7 23.4
2020-Jan-24 15:00 150 6 gusting 13 23.3
2020-Jan-24 14:50 148 8 gusting 11 23.4
2020-Jan-24 14:40 157 6 gusting 10 23.4
2020-Jan-24 14:30 174 6 gusting 8 22.8
2020-Jan-24 14:20 236 0 gusting 2 21.8
2020-Jan-24 14:10 236 1 gusting 3 21.3
2020-Jan-24 14:00 21.1
2020-Jan-24 13:50 236 2 gusting 6 20.4
2020-Jan-24 13:30 236 3 gusting 4 19.9
2020-Jan-24 13:20 236 3 gusting 6 19.8
2020-Jan-24 13:10 236 4 gusting 7 19.7
2020-Jan-24 13:00 21.3
2020-Jan-24 12:50 153 3 gusting 5 21.1
2020-Jan-24 12:40 153 1 gusting 4 20.3
2020-Jan-24 12:30 20.1
2020-Jan-24 12:20 20.3
2020-Jan-24 12:10 153 1 gusting 2 20.9
2020-Jan-24 12:00 153 0 gusting 2 20.8
2020-Jan-24 11:50 153 1 gusting 2 20.8
2020-Jan-24 11:40 153 0 gusting 7 21.7
2020-Jan-24 11:30 153 4 gusting 6 21.7
2020-Jan-24 11:20 153 4 gusting 6 21.7
2020-Jan-24 11:10 153 2 gusting 7 21.6
2020-Jan-24 11:00 146 6 gusting 12 21.5
2020-Jan-24 10:50 153 6 gusting 9 21.5
2020-Jan-24 10:40 155 6 gusting 8 21.4
2020-Jan-24 10:30 155 3 gusting 8 21.4
2020-Jan-24 10:20 150 4 gusting 7 21.4
2020-Jan-24 10:10 150 4 gusting 7 21.4
2020-Jan-24 10:00 148 5 gusting 6 21.4
2020-Jan-24 09:50 148 5 gusting 7 21.3
2020-Jan-24 09:40 147 6 gusting 7 21.4
2020-Jan-24 09:30 146 5 gusting 8 21.4
2020-Jan-24 09:20 146 4 gusting 6 21.4
2020-Jan-24 09:10 146 1 gusting 6 21.4
2020-Jan-24 09:00 142 4 gusting 8 21.4
2020-Jan-24 08:50 148 5 gusting 10 21.3
2020-Jan-24 08:40 143 2 gusting 8 21.3
2020-Jan-24 08:30 140 6 gusting 11 21.3
2020-Jan-24 08:20 142 2 gusting 8 21.3
2020-Jan-24 08:10 148 2 gusting 9 21.3
2020-Jan-24 08:00 147 6 gusting 10 21.2
2020-Jan-24 07:50 149 5 gusting 10 21.1
2020-Jan-24 07:40 166 6 gusting 7 20.8
2020-Jan-24 07:30 215 0 gusting 5 20.5
2020-Jan-24 07:20 20.1
2020-Jan-24 07:10 265 0 gusting 1 19.6
2020-Jan-24 07:00 263 1 gusting 5 19.8
2020-Jan-24 06:50 259 0 gusting 2 19.9
2020-Jan-24 06:30 297 1 gusting 2 19.0
2020-Jan-24 06:20 297 0 gusting 3 19.1
2020-Jan-24 06:10 297 1 gusting 3 18.8
2020-Jan-24 06:00 302 1 gusting 6 18.7
2020-Jan-24 05:50 307 3 gusting 4 18.7
2020-Jan-24 05:40 306 3 gusting 4 18.7
2020-Jan-24 05:30 308 3 gusting 5 18.7
2020-Jan-24 05:20 308 2 gusting 6 18.7
2020-Jan-24 05:00 306 6 gusting 7 18.8
2020-Jan-24 04:50 281 6 gusting 8 18.7
2020-Jan-24 04:40 289 2 gusting 6 18.7
2020-Jan-24 04:30 303 4 gusting 8 18.6
2020-Jan-24 04:20 308 1 gusting 7 18.7
2020-Jan-24 04:10 305 4 gusting 8 18.8
2020-Jan-24 04:00 360 2 gusting 6 18.7
2020-Jan-24 03:50 257 0 gusting 8 18.7
2020-Jan-24 03:40 300 6 gusting 9 18.7
2020-Jan-24 03:30 301 6 gusting 8 18.7
2020-Jan-24 03:20 297 8 gusting 9 18.8
2020-Jan-24 03:10 309 4 gusting 7 18.7
2020-Jan-24 03:00 304 4 gusting 8 18.6
2020-Jan-24 02:50 301 7 gusting 8 18.6
2020-Jan-24 02:40 308 7 gusting 8 18.7
2020-Jan-24 02:30 294 8 gusting 10 18.7
2020-Jan-24 02:20 297 7 gusting 9 18.7
2020-Jan-24 02:10 304 6 gusting 9 18.7
2020-Jan-24 02:00 306 6 gusting 8 18.7
2020-Jan-24 01:40 293 6 gusting 11 18.6
2020-Jan-24 01:30 284 6 gusting 11 18.6
2020-Jan-24 01:20 296 6 gusting 10 18.6
2020-Jan-24 01:10 309 6 gusting 9 18.7
2020-Jan-24 01:00 331 6 gusting 8 18.8
2020-Jan-24 00:50 308 6 gusting 8 18.8
2020-Jan-24 00:40 306 6 gusting 8 18.7
2020-Jan-24 00:30 310 6 gusting 9 18.8
2020-Jan-24 00:10 360 1 gusting 13 18.9
2020-Jan-24 00:00 338 10 gusting 11 19.0
2020-Jan-23 23:50 319 7 gusting 9 19.1
2020-Jan-23 23:40 314 4 gusting 7 19.1
2020-Jan-23 23:30 333 3 gusting 5 19.2
2020-Jan-23 23:20 028 1 gusting 3 18.9
2020-Jan-23 23:10 028 0 gusting 4 19.0
2020-Jan-23 23:00 020 6 gusting 10 19.0
2020-Jan-23 22:40 340 5 gusting 9 19.0
2020-Jan-23 22:30 005 0 gusting 6 19.1
2020-Jan-23 22:20 18.9
2020-Jan-23 22:10 034 2 gusting 5 18.8
2020-Jan-23 22:00 063 4 gusting 9 18.8
2020-Jan-23 21:50 077 2 gusting 9 19.2
2020-Jan-23 21:40 026 3 gusting 4 19.7
2020-Jan-23 21:30 019 0 gusting 5 19.9
2020-Jan-23 21:20 013 2 gusting 7 20.2
2020-Jan-23 21:10 009 4 gusting 8 20.4
2020-Jan-23 20:50 005 4 gusting 5 19.9
2020-Jan-23 20:40 044 5 gusting 7 19.7
2020-Jan-23 20:30 098 1 gusting 6 19.3
2020-Jan-23 20:20 097 6 gusting 6 19.4
2020-Jan-23 20:10 088 1 gusting 6 19.4
2020-Jan-23 20:00 080 1 gusting 7 19.7
2020-Jan-23 19:50 061 1 gusting 2 19.7
2020-Jan-23 19:40 061 0 gusting 5 19.6
2020-Jan-23 19:30 059 2 gusting 8 19.8
2020-Jan-23 19:20 093 6 gusting 10 20.5
2020-Jan-23 19:10 130 7 gusting 13 21.2
2020-Jan-23 19:00 044 5 gusting 6 21.6
2020-Jan-23 18:50 044 5 gusting 6 21.4
2020-Jan-23 18:40 047 0 gusting 5 21.2
2020-Jan-23 18:30 049 4 gusting 9 21.5
2020-Jan-23 18:20 121 2 gusting 6 21.2
2020-Jan-23 18:10 121 1 gusting 6 20.7
2020-Jan-23 18:00 113 8 gusting 12 20.9
2020-Jan-23 17:50 146 3 gusting 13 21.1
2020-Jan-23 17:40 046 1 gusting 7 21.4
2020-Jan-23 17:30 057 2 gusting 3 21.6
2020-Jan-23 17:20 21.2
2020-Jan-23 17:10 062 0 gusting 6 21.1
2020-Jan-23 17:00 036 2 gusting 8 20.9
2020-Jan-23 16:50 005 3 gusting 4 22.3
2020-Jan-23 16:40 22.7
2020-Jan-23 16:30 317 0 gusting 3 22.2
2020-Jan-23 16:20 21.8
2020-Jan-23 16:10 317 1 gusting 4 21.2
2020-Jan-23 16:00 300 2 gusting 4 21.1
2020-Jan-23 15:50 304 7 gusting 7 20.4
2020-Jan-23 15:30 302 1 gusting 4 19.1
2020-Jan-23 15:20 296 2 gusting 6 18.7
2020-Jan-23 15:10 309 6 gusting 6 18.0
2020-Jan-23 15:00 317 4 gusting 6 17.2
2020-Jan-23 14:50 315 3 gusting 6 16.7
2020-Jan-23 14:40 311 2 gusting 8 16.1
2020-Jan-23 14:30 281 2 gusting 10 15.4
2020-Jan-23 14:20 314 5 gusting 6 15.2
2020-Jan-23 14:10 292 6 gusting 9 14.8
2020-Jan-23 14:00 304 7 gusting 8 14.7
2020-Jan-23 13:50 308 6 gusting 10 14.6
2020-Jan-23 13:40 311 8 gusting 11 14.5
2020-Jan-23 13:30 303 4 gusting 7 14.5
2020-Jan-23 13:20 269 1 gusting 8 14.4
2020-Jan-23 13:10 305 6 gusting 7 14.3
2020-Jan-23 12:50 290 4 gusting 10 14.1
2020-Jan-23 12:40 328 7 gusting 9 14.1
2020-Jan-23 12:00 302 6 gusting 8 14.3
2020-Jan-23 11:50 324 4 gusting 8 14.2
2020-Jan-23 11:30 313 6 gusting 7 14.2
2020-Jan-23 11:20 313 3 gusting 7 14.2
2020-Jan-23 11:10 320 3 gusting 8 14.2
2020-Jan-23 11:00 298 7 gusting 8 14.2
2020-Jan-23 10:50 318 1 gusting 13 14.2
2020-Jan-23 10:40 288 7 gusting 12 14.0
2020-Jan-23 10:30 315 8 gusting 13 14.1
2020-Jan-23 10:20 300 9 gusting 12 14.0
2020-Jan-23 10:10 309 9 gusting 13 14.0
2020-Jan-23 10:00 302 11 gusting 14 13.9
2020-Jan-23 09:50 302 10 gusting 14 13.9
2020-Jan-23 09:40 296 11 gusting 13 14.0
2020-Jan-23 09:30 312 8 gusting 12 14.0
2020-Jan-23 09:20 311 10 gusting 13 14.0
2020-Jan-23 09:10 306 11 gusting 13 13.9
2020-Jan-23 09:00 287 9 gusting 14 13.9
2020-Jan-23 08:50 293 11 gusting 13 13.9
2020-Jan-23 08:30 309 8 gusting 13 13.9
2020-Jan-23 08:20 317 5 gusting 12 14.0
2020-Jan-23 08:10 299 10 gusting 13 13.9
2020-Jan-23 08:00 257 6 gusting 13 13.9
2020-Jan-23 07:40 291 7 gusting 12 13.9
2020-Jan-23 07:20 318 7 gusting 13 13.9
2020-Jan-23 07:10 300 9 gusting 15 13.9
2020-Jan-23 07:00 302 10 gusting 14 13.9
2020-Jan-23 06:50 294 10 gusting 14 13.9
2020-Jan-23 06:30 299 10 gusting 13 13.8
2020-Jan-23 06:20 304 8 gusting 13 13.7
2020-Jan-23 06:10 294 9 gusting 14 13.7
2020-Jan-23 06:00 291 8 gusting 14 13.7
2020-Jan-23 05:40 297 12 gusting 13 13.5
2020-Jan-23 05:30 306 8 gusting 13 13.5
2020-Jan-23 05:20 292 7 gusting 14 13.4
2020-Jan-23 05:10 301 8 gusting 14 13.4
2020-Jan-23 04:50 296 11 gusting 16 13.3
2020-Jan-23 04:40 300 14 gusting 16 13.3
2020-Jan-23 04:30 301 12 gusting 14 13.3
2020-Jan-23 04:20 298 15 gusting 16 13.3
2020-Jan-23 04:10 275 10 gusting 14 13.3
2020-Jan-23 04:00 269 13 gusting 14 13.3
2020-Jan-23 03:50 292 12 gusting 15 13.2
2020-Jan-23 03:40 292 8 gusting 14 13.2
2020-Jan-23 03:30 311 6 gusting 17 13.2
2020-Jan-23 03:20 296 10 gusting 14 13.2
2020-Jan-23 03:10 289 12 gusting 15 13.2
2020-Jan-23 03:00 285 6 gusting 6 13.3
2020-Jan-23 02:50 277 12 gusting 13 13.3
2020-Jan-23 02:40 331 7 gusting 15 13.3
2020-Jan-23 02:30 290 12 gusting 13 13.3
2020-Jan-23 02:20 355 4 gusting 13 13.4
2020-Jan-23 02:10 286 13 gusting 14 13.5
2020-Jan-23 02:00 327 10 gusting 16 13.6
2020-Jan-23 01:50 293 14 gusting 19 13.7
2020-Jan-23 01:40 288 13 gusting 18 13.8
2020-Jan-23 01:30 286 10 gusting 14 14.0
2020-Jan-23 01:20 281 8 gusting 14 14.1
2020-Jan-23 01:10 287 11 gusting 17 14.2
2020-Jan-23 00:50 334 13 gusting 14 14.5
2020-Jan-23 00:40 289 11 gusting 19 14.6
2020-Jan-23 00:30 300 12 gusting 14 14.7
2020-Jan-23 00:20 292 9 gusting 15 14.8
2020-Jan-23 00:10 325 11 gusting 18 14.8
2020-Jan-23 00:00 291 12 gusting 19 14.8
2020-Jan-22 23:50 293 15 gusting 19 14.8
2020-Jan-22 23:40 309 8 gusting 17 14.7
2020-Jan-22 23:30 293 12 gusting 19 14.6
2020-Jan-22 23:20 303 10 gusting 19 14.5
2020-Jan-22 23:10 313 13 gusting 19 14.6
2020-Jan-22 23:00 282 7 gusting 20 14.7
2020-Jan-22 22:50 294 17 gusting 20 14.9
2020-Jan-22 22:40 289 14 gusting 18 15.5
2020-Jan-22 22:30 312 11 gusting 18 15.7
2020-Jan-22 22:20 276 11 gusting 19 15.7
2020-Jan-22 22:10 296 14 gusting 17 15.6
2020-Jan-22 22:00 306 10 gusting 20 15.4